Time;durP1;ratioP1;P1;durP2;ratioP2;P2;SDS_P1;SDS_P2;PMS_P1;PMS_P2;Temp;Humidity;BMP_temperature;BMP_pressure;BME280_temperature;BME280_humidity;BME280_pressure;Samples;Min_cycle;Max_cycle;Signal;HPM_P1;HPM_P2
2022/05/04 00:00:44;;;;;;;15.60;14.20;;;;;;;;;;5084489;28;24434;-45
2022/05/04 00:03:10;;;;;;;15.07;13.67;;;;;;;;;;5086932;28;25064;-46
2022/05/04 00:05:35;;;;;;;14.75;13.25;;;;;;;;;;5083377;28;24785;-45
2022/05/04 00:08:00;;;;;;;14.80;13.40;;;;;;;;;;5083498;28;24438;-46
2022/05/04 00:10:26;;;;;;;14.77;13.37;;;;;;;;;;5084968;28;24422;-46
2022/05/04 00:12:51;;;;;;;15.10;13.70;;;;;;;;;;5084052;28;24508;-46
2022/05/04 00:15:16;;;;;;;15.00;13.60;;;;;;;;;;5085422;28;24447;-45
2022/05/04 00:17:41;;;;;;;15.80;14.40;;;;;;;;;;5085611;28;24491;-46
2022/05/04 00:20:07;;;;;;;15.30;13.90;;;;;;;;;;5083323;28;24625;-45
2022/05/04 00:22:32;;;;;;;15.30;13.90;;;;;;;;;;5083558;28;24452;-46
2022/05/04 00:24:57;;;;;;;16.00;14.60;;;;;;;;;;5086422;28;24430;-46
2022/05/04 00:27:24;;;;;;;14.97;13.57;;;;;;;;;;5083513;28;25005;-46
2022/05/04 00:29:49;;;;;;;15.50;14.20;;;;;;;;;;5078425;28;24442;-46
2022/05/04 00:32:15;;;;;;;15.30;13.90;;;;;;;;;;5084002;28;24441;-46
2022/05/04 00:34:40;;;;;;;15.38;13.98;;;;;;;;;;5084191;28;24430;-46
2022/05/04 00:37:06;;;;;;;15.07;13.68;;;;;;;;;;5085922;28;24491;-46
2022/05/04 00:39:31;;;;;;;15.60;14.10;;;;;;;;;;5085231;28;24966;-46
2022/05/04 00:42:13;;;;;;;15.07;13.77;;;;;;;;;;5081647;28;25044;-46
2022/05/04 00:44:39;;;;;;;15.60;14.30;;;;;;;;;;5080449;28;24458;-45
2022/05/04 00:47:04;;;;;;;14.65;13.35;;;;;;;;;;5082967;28;24452;-46
2022/05/04 00:49:30;;;;;;;15.17;13.87;;;;;;;;;;5085980;28;24503;-46
2022/05/04 00:51:55;;;;;;;15.20;13.85;;;;;;;;;;5086989;28;25021;-46
2022/05/04 00:54:20;;;;;;;15.27;13.87;;;;;;;;;;5083270;28;24432;-46
2022/05/04 00:56:45;;;;;;;14.67;13.37;;;;;;;;;;5083513;28;25076;-46
2022/05/04 00:59:11;;;;;;;14.88;13.48;;;;;;;;;;5085328;28;24975;-46
2022/05/04 01:01:37;;;;;;;15.63;14.03;;;;;;;;;;5084530;28;25509;-46
2022/05/04 01:04:02;;;;;;;14.60;13.30;;;;;;;;;;5077849;28;24419;-45
2022/05/04 01:06:27;;;;;;;15.47;14.00;;;;;;;;;;5082608;28;24750;-45
2022/05/04 01:08:53;;;;;;;15.77;14.10;;;;;;;;;;5085778;28;24418;-46
2022/05/04 01:11:18;;;;;;;14.73;13.40;;;;;;;;;;5072965;28;24415;-45
2022/05/04 01:13:56;;;;;;;15.73;14.23;;;;;;;;;;5083239;28;25047;-45
2022/05/04 01:16:21;;;;;;;15.32;13.93;;;;;;;;;;5081699;28;24956;-46
2022/05/04 01:18:47;;;;;;;15.27;13.88;;;;;;;;;;5085579;28;24445;-46
2022/05/04 01:21:12;;;;;;;15.50;14.00;;;;;;;;;;5081067;28;24781;-45
2022/05/04 01:23:38;;;;;;;15.10;13.77;;;;;;;;;;5083454;28;24457;-45
2022/05/04 01:26:03;;;;;;;14.47;13.07;;;;;;;;;;5081867;28;24433;-45
2022/05/04 01:28:29;;;;;;;15.95;14.55;;;;;;;;;;5080145;28;24976;-45
2022/05/04 01:30:54;;;;;;;16.00;14.40;;;;;;;;;;5080117;28;24466;-45
2022/05/04 01:33:19;;;;;;;15.40;13.90;;;;;;;;;;5079864;28;24418;-45
2022/05/04 01:35:44;;;;;;;15.90;14.17;;;;;;;;;;5080217;28;24422;-46
2022/05/04 01:38:09;;;;;;;15.35;13.98;;;;;;;;;;5085319;28;24499;-46
2022/05/04 01:40:34;;;;;;;15.30;13.90;;;;;;;;;;5078776;28;25165;-45
2022/05/04 01:42:59;;;;;;;14.80;13.40;;;;;;;;;;5078691;28;24509;-45
2022/05/04 01:45:25;;;;;;;15.45;14.07;;;;;;;;;;5081617;28;24515;-45
2022/05/04 01:47:50;;;;;;;15.43;14.07;;;;;;;;;;5084447;28;24410;-46
2022/05/04 01:50:16;;;;;;;15.47;14.03;;;;;;;;;;5083235;28;24521;-45
2022/05/04 01:52:41;;;;;;;14.95;13.65;;;;;;;;;;5082602;28;24419;-45
2022/05/04 01:55:06;;;;;;;15.45;14.05;;;;;;;;;;5080048;28;25319;-46
2022/05/04 01:57:31;;;;;;;15.00;13.70;;;;;;;;;;5083065;28;24464;-46
2022/05/04 01:59:57;;;;;;;15.93;14.43;;;;;;;;;;5078414;28;24465;-46
2022/05/04 02:02:22;;;;;;;15.10;13.80;;;;;;;;;;5083257;28;24418;-46
2022/05/04 02:04:49;;;;;;;14.80;13.40;;;;;;;;;;5081050;28;24475;-46
2022/05/04 02:07:14;;;;;;;15.98;14.38;;;;;;;;;;5076783;28;24416;-46
2022/05/04 02:09:40;;;;;;;15.48;14.07;;;;;;;;;;5082135;28;24433;-46
2022/05/04 02:12:05;;;;;;;14.95;13.55;;;;;;;;;;5083760;28;24433;-46
2022/05/04 02:14:33;;;;;;;15.17;13.87;;;;;;;;;;5082521;28;24437;-45
2022/05/04 02:17:01;;;;;;;15.30;13.90;;;;;;;;;;5082481;28;24894;-46
2022/05/04 02:19:26;;;;;;;14.98;13.68;;;;;;;;;;5075797;28;24879;-46
2022/05/04 02:21:51;;;;;;;16.30;14.65;;;;;;;;;;5082030;28;25036;-46
2022/05/04 02:24:17;;;;;;;14.43;13.10;;;;;;;;;;5081260;28;24464;-45
2022/05/04 02:26:42;;;;;;;16.30;14.70;;;;;;;;;;5081349;28;26279;-46
2022/05/04 02:29:07;;;;;;;15.30;14.00;;;;;;;;;;5084358;28;24446;-45
2022/05/04 02:31:32;;;;;;;16.02;14.52;;;;;;;;;;5081786;28;24421;-45
2022/05/04 02:33:57;;;;;;;15.63;14.07;;;;;;;;;;5081423;28;24430;-46
2022/05/04 02:39:06;;;;;;;16.83;15.13;;;;;;;;;;5084512;28;25222;-45
2022/05/04 02:41:32;;;;;;;15.30;13.80;;;;;;;;;;5081284;28;24422;-46
2022/05/04 02:43:57;;;;;;;14.80;13.40;;;;;;;;;;5081606;28;24505;-45
2022/05/04 02:46:24;;;;;;;15.83;14.33;;;;;;;;;;5083430;28;24429;-45
2022/05/04 02:48:49;;;;;;;16.35;14.85;;;;;;;;;;5079638;28;24839;-46
2022/05/04 02:51:14;;;;;;;16.10;14.60;;;;;;;;;;5082604;28;24515;-46
2022/05/04 02:53:40;;;;;;;17.60;15.98;;;;;;;;;;5077459;28;24499;-45
2022/05/04 02:56:06;;;;;;;16.13;14.73;;;;;;;;;;5083090;28;24433;-47
2022/05/04 02:58:31;;;;;;;16.40;14.90;;;;;;;;;;5081672;28;24899;-47
2022/05/04 03:02:26;;;;;;;16.87;15.37;;;;;;;;;;5080557;28;24422;-47
2022/05/04 03:03:51;;;;;;;16.08;14.57;;;;;;;;;;5081975;28;24410;-47
2022/05/04 03:06:16;;;;;;;15.63;14.33;;;;;;;;;;5082891;28;24987;-47
2022/05/04 03:08:41;;;;;;;16.40;15.00;;;;;;;;;;5082273;28;24511;-47
2022/05/04 03:13:50;;;;;;;16.13;14.77;;;;;;;;;;5080274;28;24463;-47
2022/05/04 03:16:15;;;;;;;16.55;14.95;;;;;;;;;;5087397;28;24797;-47
2022/05/04 03:18:40;;;;;;;17.20;15.60;;;;;;;;;;5089741;28;24414;-47
2022/05/04 03:21:05;;;;;;;15.93;14.63;;;;;;;;;;5088324;28;24445;-47
2022/05/04 03:23:31;;;;;;;15.15;13.85;;;;;;;;;;5079848;28;25144;-47
2022/05/04 03:25:56;;;;;;;15.52;14.23;;;;;;;;;;5087194;28;24433;-47
2022/05/04 03:28:21;;;;;;;15.63;14.33;;;;;;;;;;5087282;28;24445;-47
2022/05/04 03:30:46;;;;;;;16.60;15.00;;;;;;;;;;5068819;28;25007;-47
2022/05/04 03:33:11;;;;;;;16.45;15.05;;;;;;;;;;5067530;28;24425;-47
2022/05/04 03:35:36;;;;;;;15.88;14.38;;;;;;;;;;5065972;28;24426;-47
2022/05/04 03:38:03;;;;;;;15.00;13.80;;;;;;;;;;5068923;28;20754;-47
2022/05/04 03:40:28;;;;;;;16.30;14.90;;;;;;;;;;5069118;28;24422;-47
2022/05/04 03:42:54;;;;;;;15.82;14.50;;;;;;;;;;5068695;28;24410;-47
2022/05/04 03:45:20;;;;;;;15.70;14.40;;;;;;;;;;5069442;28;24413;-47
2022/05/04 03:47:45;;;;;;;15.57;14.20;;;;;;;;;;5069739;28;24881;-46
2022/05/04 03:50:10;;;;;;;15.68;14.27;;;;;;;;;;5068965;28;24480;-47
2022/05/04 03:52:36;;;;;;;15.80;14.40;;;;;;;;;;5067855;28;24438;-47
2022/05/04 03:55:01;;;;;;;15.85;14.35;;;;;;;;;;5068446;28;24403;-47
2022/05/04 03:57:26;;;;;;;15.15;13.75;;;;;;;;;;5067473;28;24596;-46
2022/05/04 03:59:51;;;;;;;15.80;14.50;;;;;;;;;;5063273;28;24438;-47
2022/05/04 04:02:16;;;;;;;15.27;13.98;;;;;;;;;;5067538;28;24472;-47
2022/05/04 04:04:41;;;;;;;15.05;13.70;;;;;;;;;;5068903;28;24430;-47
2022/05/04 04:07:06;;;;;;;14.40;13.20;;;;;;;;;;5068411;28;24434;-51
2022/05/04 04:09:32;;;;;;;15.30;13.80;;;;;;;;;;5067405;28;24464;-47
2022/05/04 04:11:57;;;;;;;15.25;13.80;;;;;;;;;;5068800;28;24972;-47
2022/05/04 04:14:22;;;;;;;15.63;14.13;;;;;;;;;;5065454;28;24443;-54
2022/05/04 04:16:47;;;;;;;14.57;13.27;;;;;;;;;;5068002;28;24422;-47
2022/05/04 04:19:12;;;;;;;14.70;13.40;;;;;;;;;;5067163;28;25034;-47
2022/05/04 04:21:53;;;;;;;14.88;13.57;;;;;;;;;;5063072;28;24422;-47
2022/05/04 04:24:20;;;;;;;14.07;12.88;;;;;;;;;;5061211;28;25255;-48
2022/05/04 04:26:45;;;;;;;14.93;13.50;;;;;;;;;;5064602;28;24643;-47
2022/05/04 04:29:11;;;;;;;13.27;12.07;;;;;;;;;;5068345;28;24536;-47
2022/05/04 04:31:36;;;;;;;15.35;13.77;;;;;;;;;;5088587;28;24982;-47
2022/05/04 04:34:01;;;;;;;14.57;13.17;;;;;;;;;;5078462;28;24498;-48
2022/05/04 04:36:26;;;;;;;14.00;12.70;;;;;;;;;;5084012;28;24437;-47
2022/05/04 04:38:52;;;;;;;15.00;13.50;;;;;;;;;;5074672;28;25074;-47
2022/05/04 04:41:17;;;;;;;13.33;12.03;;;;;;;;;;5083178;28;25019;-47
2022/05/04 04:43:43;;;;;;;14.23;13.03;;;;;;;;;;5078739;28;24421;-47
2022/05/04 04:46:08;;;;;;;13.32;12.13;;;;;;;;;;5081108;28;24429;-47
2022/05/04 04:48:33;;;;;;;13.38;12.07;;;;;;;;;;5080960;28;24773;-47
2022/05/04 04:50:58;;;;;;;12.60;11.50;;;;;;;;;;5079024;28;24433;-46
2022/05/04 04:53:23;;;;;;;12.73;11.53;;;;;;;;;;5071556;28;24785;-47
2022/05/04 04:55:49;;;;;;;12.23;11.10;;;;;;;;;;5080086;28;24429;-46
2022/05/04 04:58:14;;;;;;;11.87;10.87;;;;;;;;;;5078884;28;24596;-48
2022/05/04 05:00:39;;;;;;;12.67;11.57;;;;;;;;;;5083105;28;24386;-45
2022/05/04 05:03:04;;;;;;;12.10;10.90;;;;;;;;;;5076553;28;24433;-44
2022/05/04 05:05:29;;;;;;;13.00;11.90;;;;;;;;;;5085077;28;24794;-45
2022/05/04 05:07:55;;;;;;;11.87;10.80;;;;;;;;;;5080943;28;24439;-45
2022/05/04 05:10:20;;;;;;;11.75;10.65;;;;;;;;;;5078234;28;24446;-45
2022/05/04 05:12:45;;;;;;;11.90;10.90;;;;;;;;;;5082184;28;24418;-47
2022/05/04 05:17:54;;;;;;;11.30;10.30;;;;;;;;;;5078657;28;25032;-46
2022/05/04 05:20:20;;;;;;;10.93;10.03;;;;;;;;;;5079505;28;24414;-46
2022/05/04 05:22:45;;;;;;;11.53;10.47;;;;;;;;;;5080892;28;24513;-46
2022/05/04 05:25:10;;;;;;;10.67;9.77;;;;;;;;;;5083289;28;24976;-46
2022/05/04 05:27:35;;;;;;;10.70;9.90;;;;;;;;;;5077045;28;24418;-46
2022/05/04 05:30:00;;;;;;;10.50;9.60;;;;;;;;;;5065514;28;24778;-46
2022/05/04 05:32:26;;;;;;;11.50;10.50;;;;;;;;;;5074636;28;24498;-46
2022/05/04 05:34:51;;;;;;;10.30;9.40;;;;;;;;;;5075903;28;24415;-46
2022/05/04 05:37:16;;;;;;;10.23;9.32;;;;;;;;;;5065922;28;24418;-45
2022/05/04 05:39:42;;;;;;;9.80;9.00;;;;;;;;;;5066668;28;24415;-46
2022/05/04 05:42:07;;;;;;;10.20;9.40;;;;;;;;;;5066308;28;24758;-46
2022/05/04 05:44:33;;;;;;;10.90;10.00;;;;;;;;;;5080395;28;24971;-46
2022/05/04 05:46:58;;;;;;;12.82;11.82;;;;;;;;;;5078413;28;24425;-47
2022/05/04 05:49:23;;;;;;;12.47;11.47;;;;;;;;;;5064332;28;24415;-47
2022/05/04 05:51:48;;;;;;;12.77;11.68;;;;;;;;;;5075464;28;24497;-46
2022/05/04 05:54:14;;;;;;;12.13;11.13;;;;;;;;;;5083120;28;24551;-47
2022/05/04 05:56:39;;;;;;;11.53;10.53;;;;;;;;;;5077419;28;24831;-46
2022/05/04 05:59:04;;;;;;;15.70;14.20;;;;;;;;;;5079059;28;24467;-47
2022/05/04 06:01:29;;;;;;;11.73;10.73;;;;;;;;;;5079008;28;25028;-45
2022/05/04 06:03:54;;;;;;;12.40;11.20;;;;;;;;;;5075974;28;24533;-46
2022/05/04 06:06:20;;;;;;;14.80;13.50;;;;;;;;;;5074017;28;24430;-46
2022/05/04 06:08:46;;;;;;;14.47;13.27;;;;;;;;;;5078326;28;24422;-47
2022/05/04 06:11:11;;;;;;;14.40;13.10;;;;;;;;;;5077844;28;24467;-46
2022/05/04 06:13:36;;;;;;;12.20;11.20;;;;;;;;;;5075224;28;24928;-46
2022/05/04 06:16:01;;;;;;;11.85;10.90;;;;;;;;;;5075034;28;24430;-46
2022/05/04 06:18:26;;;;;;;13.90;12.70;;;;;;;;;;5078437;28;24529;-46
2022/05/04 06:20:52;;;;;;;10.90;9.90;;;;;;;;;;5076773;28;24438;-46
2022/05/04 06:23:17;;;;;;;10.95;10.05;;;;;;;;;;5078817;28;24426;-46
2022/05/04 06:25:42;;;;;;;11.48;10.57;;;;;;;;;;5081199;28;24433;-46
2022/05/04 06:28:07;;;;;;;11.80;10.60;;;;;;;;;;5077678;28;24437;-47
2022/05/04 06:36:00;;;;;;;11.93;10.82;;;;;;;;;;5080293;28;24794;-46
2022/05/04 06:38:25;;;;;;;10.75;9.85;;;;;;;;;;5080994;28;24414;-46
2022/05/04 06:40:51;;;;;;;11.83;10.73;;;;;;;;;;5081615;28;24451;-46
2022/05/04 06:43:16;;;;;;;11.27;10.27;;;;;;;;;;5080847;28;24433;-51
2022/05/04 06:45:41;;;;;;;11.75;10.75;;;;;;;;;;5084393;28;24473;-46
2022/05/04 06:48:07;;;;;;;10.93;10.00;;;;;;;;;;5086720;28;25040;-46
2022/05/04 06:50:32;;;;;;;12.53;11.47;;;;;;;;;;5085659;28;24426;-46
2022/05/04 06:52:57;;;;;;;13.43;12.13;;;;;;;;;;5086248;28;24991;-46
2022/05/04 06:55:22;;;;;;;11.47;10.37;;;;;;;;;;5087101;28;24952;-46
2022/05/04 06:57:47;;;;;;;10.43;9.50;;;;;;;;;;5090330;28;24403;-46
2022/05/04 07:00:13;;;;;;;10.90;9.90;;;;;;;;;;5090389;28;24921;-46
2022/05/04 07:02:38;;;;;;;10.75;9.85;;;;;;;;;;5090438;28;24387;-46
2022/05/04 07:05:04;;;;;;;10.20;9.20;;;;;;;;;;5087864;28;25233;-47
2022/05/04 07:07:29;;;;;;;10.40;9.40;;;;;;;;;;5088999;28;24410;-47
2022/05/04 07:09:54;;;;;;;9.20;8.50;;;;;;;;;;5089871;28;24386;-47
2022/05/04 07:12:20;;;;;;;9.30;8.50;;;;;;;;;;5090151;28;24451;-46
2022/05/04 07:14:45;;;;;;;9.43;8.63;;;;;;;;;;5090242;28;24749;-47
2022/05/04 07:17:10;;;;;;;11.02;10.13;;;;;;;;;;5089651;28;24481;-46
2022/05/04 07:19:35;;;;;;;10.60;9.70;;;;;;;;;;5087430;28;24446;-46
2022/05/04 07:22:00;;;;;;;9.45;8.65;;;;;;;;;;5069729;28;24924;-46
2022/05/04 07:24:25;;;;;;;9.32;8.52;;;;;;;;;;5069650;28;24449;-48
2022/05/04 07:26:51;;;;;;;10.27;9.37;;;;;;;;;;5069730;28;24386;-46
2022/05/04 07:29:16;;;;;;;9.20;8.43;;;;;;;;;;5077562;28;25233;-46
2022/05/04 07:31:44;;;;;;;8.90;8.20;;;;;;;;;;5088274;28;24406;-47
2022/05/04 07:34:10;;;;;;;8.40;7.80;;;;;;;;;;5089391;28;24471;-46
2022/05/04 07:36:35;;;;;;;8.53;7.83;;;;;;;;;;5090020;28;24394;-46
2022/05/04 07:39:00;;;;;;;8.23;7.63;;;;;;;;;;5089591;28;24402;-47
2022/05/04 07:44:09;;;;;;;9.00;8.20;;;;;;;;;;5074106;28;24937;-46
2022/05/04 07:46:34;;;;;;;10.53;9.63;;;;;;;;;;5069004;28;24696;-46
2022/05/04 07:48:59;;;;;;;9.65;8.85;;;;;;;;;;5069708;28;24423;-46
2022/05/04 07:51:25;;;;;;;9.30;8.50;;;;;;;;;;5076153;28;24822;-46
2022/05/04 07:53:50;;;;;;;9.90;9.00;;;;;;;;;;5089096;28;24463;-47
2022/05/04 07:56:15;;;;;;;11.50;10.60;;;;;;;;;;5086770;28;24498;-49
2022/05/04 07:58:40;;;;;;;9.13;8.43;;;;;;;;;;5089335;28;25000;-46
2022/05/04 08:06:33;;;;;;;8.80;8.10;;;;;;;;;;5088517;28;24405;-47
2022/05/04 08:08:58;;;;;;;8.50;7.80;;;;;;;;;;5072080;28;24399;-46
2022/05/04 08:11:23;;;;;;;7.93;7.23;;;;;;;;;;5068204;28;24398;-47
2022/05/04 08:13:49;;;;;;;7.60;7.00;;;;;;;;;;5068046;28;24387;-46
2022/05/04 08:16:14;;;;;;;7.60;7.00;;;;;;;;;;5076293;28;24453;-47
2022/05/04 08:18:40;;;;;;;6.97;6.45;;;;;;;;;;5087378;28;24399;-47
2022/05/04 08:21:05;;;;;;;8.48;7.68;;;;;;;;;;5087578;28;24990;-47
2022/05/04 08:23:31;;;;;;;9.20;8.40;;;;;;;;;;5088103;28;24394;-47
2022/05/04 08:25:56;;;;;;;8.30;7.50;;;;;;;;;;5087720;28;25216;-47
2022/05/04 08:28:21;;;;;;;8.50;7.70;;;;;;;;;;5088188;28;24397;-46
2022/05/04 08:30:47;;;;;;;6.50;6.00;;;;;;;;;;5088387;28;24414;-46
2022/05/04 08:33:12;;;;;;;6.50;6.00;;;;;;;;;;5088242;28;24440;-46
2022/05/04 08:35:37;;;;;;;6.20;5.60;;;;;;;;;;5086346;28;24459;-46
2022/05/04 08:38:02;;;;;;;6.30;5.80;;;;;;;;;;5088311;28;24477;-47
2022/05/04 08:40:28;;;;;;;5.88;5.38;;;;;;;;;;5087992;28;25371;-46
2022/05/04 08:42:55;;;;;;;5.68;5.18;;;;;;;;;;5080633;28;24432;-47
2022/05/04 08:45:20;;;;;;;5.50;5.10;;;;;;;;;;5067756;28;24429;-47
2022/05/04 08:47:45;;;;;;;5.40;4.90;;;;;;;;;;5068102;28;24437;-47
2022/05/04 08:50:12;;;;;;;5.10;4.70;;;;;;;;;;5067897;28;24927;-47
2022/05/04 08:52:40;;;;;;;4.75;4.40;;;;;;;;;;5068452;28;24399;-46
2022/05/04 08:55:06;;;;;;;6.03;5.53;;;;;;;;;;5067643;28;24517;-46
2022/05/04 08:57:31;;;;;;;5.72;5.22;;;;;;;;;;5067610;28;24490;-46
2022/05/04 08:59:56;;;;;;;7.03;6.00;;;;;;;;;;5067854;28;24941;-46
2022/05/04 09:02:22;;;;;;;5.50;5.00;;;;;;;;;;5078333;28;24987;-47
2022/05/04 09:04:47;;;;;;;6.20;5.55;;;;;;;;;;5087853;28;24527;-46
2022/05/04 09:07:19;;;;;;;5.07;4.57;;;;;;;;;;5075275;28;25201;-47
2022/05/04 09:09:44;;;;;;;5.72;5.22;;;;;;;;;;5087892;28;24385;-47
2022/05/04 09:12:09;;;;;;;6.10;5.60;;;;;;;;;;5088121;28;24390;-46
2022/05/04 09:14:35;;;;;;;5.97;5.37;;;;;;;;;;5087996;28;24753;-46
2022/05/04 09:17:00;;;;;;;4.80;4.43;;;;;;;;;;5087205;28;24417;-47
2022/05/04 09:19:25;;;;;;;5.20;4.80;;;;;;;;;;5087243;28;24429;-46
2022/05/04 09:21:52;;;;;;;5.30;4.80;;;;;;;;;;5087836;28;24471;-47
2022/05/04 09:24:28;;;;;;;5.80;5.20;;;;;;;;;;5087482;28;24517;-47
2022/05/04 09:26:55;;;;;;;5.00;4.60;;;;;;;;;;5086706;28;24959;-47
2022/05/04 09:29:20;;;;;;;5.90;5.10;;;;;;;;;;5087653;28;24426;-47
2022/05/04 09:31:46;;;;;;;5.23;4.83;;;;;;;;;;5069631;28;24464;-47
2022/05/04 09:34:11;;;;;;;4.67;4.27;;;;;;;;;;5067439;28;24387;-46
2022/05/04 09:36:38;;;;;;;5.60;5.10;;;;;;;;;;5066941;28;24947;-47
2022/05/04 09:44:57;;;;;;;6.70;6.10;;;;;;;;;;5067211;28;25082;-45
2022/05/04 09:47:23;;;;;;;6.95;6.35;;;;;;;;;;5066985;28;24394;-46
2022/05/04 09:49:49;;;;;;;6.60;6.00;;;;;;;;;;5084424;28;24416;-46
2022/05/04 09:52:14;;;;;;;8.18;7.40;;;;;;;;;;5087190;28;24394;-45
2022/05/04 09:54:40;;;;;;;5.45;5.00;;;;;;;;;;5086073;28;24433;-46
2022/05/04 09:57:06;;;;;;;5.30;4.90;;;;;;;;;;5064639;28;24789;-47
2022/05/04 09:59:32;;;;;;;8.20;7.60;;;;;;;;;;5076995;28;24475;-47
2022/05/04 10:01:59;;;;;;;8.60;7.90;;;;;;;;;;5087250;28;24595;-46
2022/05/04 10:04:24;;;;;;;6.50;5.90;;;;;;;;;;5087427;28;24412;-46
2022/05/04 10:06:52;;;;;;;7.30;6.70;;;;;;;;;;5086952;28;24375;-45
2022/05/04 10:09:17;;;;;;;7.13;6.43;;;;;;;;;;5072325;28;24426;-46
2022/05/04 10:11:43;;;;;;;6.88;6.30;;;;;;;;;;5087314;28;24915;-46
2022/05/04 10:14:10;;;;;;;7.20;6.60;;;;;;;;;;5074833;28;24406;-46
2022/05/04 10:16:53;;;;;;;8.10;7.32;;;;;;;;;;5076631;28;24490;-46
2022/05/04 10:19:20;;;;;;;6.97;6.38;;;;;;;;;;5086454;28;24544;-46
2022/05/04 10:21:48;;;;;;;6.93;6.35;;;;;;;;;;5082603;28;24478;-46
2022/05/04 10:24:14;;;;;;;5.70;5.30;;;;;;;;;;5086489;28;24397;-46
2022/05/04 10:26:40;;;;;;;6.50;6.00;;;;;;;;;;5078872;28;24422;-46
2022/05/04 10:32:07;;;;;;;7.80;7.20;;;;;;;;;;5085688;28;24401;-46
2022/05/04 10:34:32;;;;;;;6.70;6.20;;;;;;;;;;5081853;28;24997;-49
2022/05/04 10:36:57;;;;;;;7.97;7.22;;;;;;;;;;5066238;28;24395;-46
2022/05/04 10:39:22;;;;;;;7.07;6.47;;;;;;;;;;5071348;28;24852;-46
2022/05/04 10:41:48;;;;;;;7.00;6.50;;;;;;;;;;5084776;28;24504;-46
2022/05/04 10:44:15;;;;;;;7.60;6.80;;;;;;;;;;5082859;28;24371;-47
2022/05/04 10:46:41;;;;;;;7.45;6.80;;;;;;;;;;5083429;28;24410;-46
2022/05/04 10:49:08;;;;;;;8.25;7.50;;;;;;;;;;5075636;28;24417;-46
2022/05/04 10:51:38;;;;;;;6.10;5.70;;;;;;;;;;5069300;28;24544;-46
2022/05/04 10:54:10;;;;;;;7.35;6.65;;;;;;;;;;5073081;28;25040;-46
2022/05/04 10:56:37;;;;;;;7.10;6.60;;;;;;;;;;5082934;28;24514;-45
2022/05/04 10:59:02;;;;;;;7.00;6.38;;;;;;;;;;5084051;28;24951;-45
2022/05/04 11:01:40;;;;;;;6.13;5.63;;;;;;;;;;5064164;28;24407;-46
2022/05/04 11:04:11;;;;;;;7.20;6.60;;;;;;;;;;5067711;28;24471;-46
2022/05/04 11:06:36;;;;;;;7.53;6.22;;;;;;;;;;5078679;28;24437;-46
2022/05/04 11:09:10;;;;;;;8.17;7.57;;;;;;;;;;5083199;28;24434;-46
2022/05/04 11:11:35;;;;;;;6.57;6.07;;;;;;;;;;5066055;28;24383;-46
2022/05/04 11:14:01;;;;;;;5.60;5.10;;;;;;;;;;5082452;28;24429;-47
2022/05/04 11:16:28;;;;;;;5.53;5.10;;;;;;;;;;5072113;28;24777;-46
2022/05/04 11:18:53;;;;;;;5.90;5.40;;;;;;;;;;5082784;28;26991;-46
2022/05/04 11:21:19;;;;;;;5.90;5.50;;;;;;;;;;5064255;28;24425;-46
2022/05/04 11:23:47;;;;;;;6.00;5.50;;;;;;;;;;5066849;28;24399;-46
2022/05/04 11:26:17;;;;;;;4.82;4.50;;;;;;;;;;5084696;28;24719;-46
2022/05/04 11:28:42;;;;;;;5.13;4.65;;;;;;;;;;5082348;28;24520;-46
2022/05/04 11:31:09;;;;;;;5.00;4.70;;;;;;;;;;5068011;28;24529;-46
2022/05/04 11:33:34;;;;;;;4.50;4.20;;;;;;;;;;5068609;28;24873;-46
2022/05/04 11:35:59;;;;;;;4.30;4.00;;;;;;;;;;5067964;28;24425;-46
2022/05/04 11:38:24;;;;;;;4.93;4.55;;;;;;;;;;5081627;28;24438;-46
2022/05/04 11:40:50;;;;;;;5.63;5.22;;;;;;;;;;5066877;28;24444;-46
2022/05/04 11:43:22;;;;;;;4.60;4.30;;;;;;;;;;5085494;28;24498;-46
2022/05/04 11:45:47;;;;;;;4.72;4.38;;;;;;;;;;5088962;28;24728;-47
2022/05/04 11:48:13;;;;;;;6.30;5.70;;;;;;;;;;5089257;28;24494;-46
2022/05/04 11:50:41;;;;;;;6.60;6.10;;;;;;;;;;5089644;28;24932;-46
2022/05/04 11:53:06;;;;;;;5.97;5.57;;;;;;;;;;5088554;28;24492;-46
2022/05/04 11:55:34;;;;;;;5.20;4.80;;;;;;;;;;5089086;28;24398;-46
2022/05/04 11:57:59;;;;;;;6.35;5.85;;;;;;;;;;5089041;28;24471;-46
2022/05/04 12:00:25;;;;;;;6.30;5.70;;;;;;;;;;5089352;28;24410;-46
2022/05/04 12:02:50;;;;;;;5.87;5.37;;;;;;;;;;5087331;28;24438;-46
2022/05/04 12:05:15;;;;;;;7.07;6.37;;;;;;;;;;5089294;28;24502;-46
2022/05/04 12:07:41;;;;;;;7.03;6.53;;;;;;;;;;5088884;28;24803;-47
2022/05/04 12:10:07;;;;;;;6.90;6.30;;;;;;;;;;5089315;28;24409;-46
2022/05/04 12:12:32;;;;;;;6.13;5.57;;;;;;;;;;5084931;28;24483;-46
2022/05/04 12:15:00;;;;;;;6.90;6.20;;;;;;;;;;5068763;28;24405;-46
2022/05/04 12:17:26;;;;;;;5.90;5.40;;;;;;;;;;5075843;28;24983;-46
2022/05/04 12:19:51;;;;;;;6.00;5.50;;;;;;;;;;5088697;28;24458;-48
2022/05/04 12:22:16;;;;;;;7.33;5.90;;;;;;;;;;5089382;28;24395;-46
2022/05/04 12:24:42;;;;;;;6.32;5.50;;;;;;;;;;5087056;28;24403;-46
2022/05/04 12:27:08;;;;;;;5.00;4.70;;;;;;;;;;5088608;28;24417;-46
2022/05/04 12:35:01;;;;;;;5.60;5.20;;;;;;;;;;5088980;28;24492;-46
2022/05/04 12:37:30;;;;;;;6.20;5.75;;;;;;;;;;5086271;28;24406;-46
2022/05/04 12:39:55;;;;;;;6.13;5.20;;;;;;;;;;5088118;28;24503;-46
2022/05/04 12:42:20;;;;;;;5.10;4.80;;;;;;;;;;5087850;28;24449;-47
2022/05/04 12:44:50;;;;;;;7.47;6.80;;;;;;;;;;5088342;28;24757;-47
2022/05/04 12:47:15;;;;;;;7.80;5.90;;;;;;;;;;5088595;28;24463;-46
2022/05/04 12:49:40;;;;;;;7.20;6.50;;;;;;;;;;5086454;28;24433;-45
2022/05/04 12:52:06;;;;;;;6.80;6.30;;;;;;;;;;5088215;28;24394;-45
2022/05/04 12:54:31;;;;;;;7.07;5.93;;;;;;;;;;5072393;28;24494;-46
2022/05/04 12:56:56;;;;;;;6.97;6.37;;;;;;;;;;5068458;28;24782;-46
2022/05/04 12:59:21;;;;;;;6.53;5.93;;;;;;;;;;5073624;28;24780;-45
2022/05/04 13:01:46;;;;;;;6.20;5.60;;;;;;;;;;5071431;28;24476;-45
2022/05/04 13:04:15;;;;;;;5.70;5.30;;;;;;;;;;5068027;28;24939;-45
2022/05/04 13:06:41;;;;;;;6.40;5.80;;;;;;;;;;5086276;28;24484;-46
2022/05/04 13:09:06;;;;;;;6.70;6.10;;;;;;;;;;5087957;28;24665;-46
2022/05/04 13:11:33;;;;;;;6.80;6.17;;;;;;;;;;5088001;28;24394;-45
2022/05/04 13:13:58;;;;;;;7.70;6.90;;;;;;;;;;5075145;28;25092;-46
2022/05/04 13:16:23;;;;;;;6.37;5.63;;;;;;;;;;5080637;28;24426;-46
2022/05/04 13:18:49;;;;;;;6.60;5.90;;;;;;;;;;5088385;28;24597;-46
2022/05/04 13:21:14;;;;;;;11.07;6.63;;;;;;;;;;5087645;28;24501;-46
2022/05/04 13:23:40;;;;;;;6.00;5.60;;;;;;;;;;5086127;28;24410;-46
2022/05/04 13:26:05;;;;;;;6.80;6.20;;;;;;;;;;5086336;28;24422;-46
2022/05/04 13:28:31;;;;;;;5.80;5.40;;;;;;;;;;5087544;28;24393;-45
2022/05/04 13:30:56;;;;;;;6.70;6.00;;;;;;;;;;5086971;28;24509;-49
2022/05/04 13:33:23;;;;;;;6.47;5.50;;;;;;;;;;5087028;28;24410;-46
2022/05/04 13:35:48;;;;;;;6.47;5.90;;;;;;;;;;5085145;28;24859;-45
2022/05/04 13:38:13;;;;;;;5.20;4.80;;;;;;;;;;5066937;28;25011;-45
2022/05/04 13:40:38;;;;;;;6.95;6.25;;;;;;;;;;5066246;28;24438;-46
2022/05/04 13:43:04;;;;;;;6.55;5.75;;;;;;;;;;5065111;28;24394;-45
2022/05/04 13:45:29;;;;;;;5.93;5.43;;;;;;;;;;5079310;28;24437;-45
2022/05/04 13:47:54;;;;;;;6.00;5.50;;;;;;;;;;5083351;28;24417;-45
2022/05/04 13:53:15;;;;;;;5.57;5.18;;;;;;;;;;5083382;28;24441;-46
2022/05/04 13:55:41;;;;;;;6.30;5.70;;;;;;;;;;5085127;28;24418;-46
2022/05/04 13:58:06;;;;;;;6.00;5.50;;;;;;;;;;5081528;28;24457;-45
2022/05/04 14:00:31;;;;;;;5.90;5.40;;;;;;;;;;5068842;28;24450;-46
2022/05/04 14:02:56;;;;;;;6.30;5.80;;;;;;;;;;5082059;28;24450;-46
2022/05/04 14:05:22;;;;;;;5.57;5.07;;;;;;;;;;5072671;28;24488;-46
2022/05/04 14:07:48;;;;;;;4.60;4.30;;;;;;;;;;5083148;28;24529;-45
2022/05/04 14:10:13;;;;;;;4.60;4.20;;;;;;;;;;5083975;28;24753;-45
2022/05/04 14:12:38;;;;;;;5.03;4.72;;;;;;;;;;5078806;28;24414;-45
2022/05/04 14:15:04;;;;;;;4.95;4.55;;;;;;;;;;5086062;28;24394;-45
2022/05/04 14:17:30;;;;;;;5.20;4.80;;;;;;;;;;5086445;28;24451;-46
2022/05/04 14:19:55;;;;;;;5.30;4.90;;;;;;;;;;5077094;28;24789;-45
2022/05/04 14:22:20;;;;;;;5.60;5.20;;;;;;;;;;5067009;28;24642;-45
2022/05/04 14:24:45;;;;;;;6.00;5.50;;;;;;;;;;5067474;28;24423;-46
2022/05/04 14:27:10;;;;;;;5.60;4.97;;;;;;;;;;5079980;28;24417;-45
2022/05/04 14:29:36;;;;;;;6.00;5.50;;;;;;;;;;5086766;28;24984;-45
2022/05/04 14:32:01;;;;;;;5.10;4.80;;;;;;;;;;5086393;28;24401;-46
2022/05/04 14:34:26;;;;;;;4.47;4.17;;;;;;;;;;5086612;28;24390;-46
2022/05/04 14:36:51;;;;;;;4.80;4.37;;;;;;;;;;5084408;28;24501;-46
2022/05/04 14:39:17;;;;;;;5.10;4.70;;;;;;;;;;5086385;28;24390;-46
2022/05/04 14:41:42;;;;;;;5.50;5.03;;;;;;;;;;5086947;28;24382;-47
2022/05/04 14:44:07;;;;;;;4.60;4.30;;;;;;;;;;5086843;28;24401;-46
2022/05/04 14:46:32;;;;;;;4.85;4.45;;;;;;;;;;5079830;28;24414;-46
2022/05/04 14:48:57;;;;;;;4.97;4.57;;;;;;;;;;5083773;28;24789;-46
2022/05/04 14:51:22;;;;;;;4.60;4.30;;;;;;;;;;5083609;28;24457;-46
2022/05/04 14:53:51;;;;;;;4.82;4.43;;;;;;;;;;5083236;28;24425;-47
2022/05/04 14:56:19;;;;;;;5.60;5.10;;;;;;;;;;5085396;28;24770;-47
2022/05/04 14:58:44;;;;;;;4.70;4.30;;;;;;;;;;5085810;28;24990;-47
2022/05/04 15:01:09;;;;;;;4.60;4.30;;;;;;;;;;5086537;28;24482;-47